createdAt,value
2018-12-03T06:13:08.879Z,4.47
2018-12-03T06:15:38.576Z,5.90
2018-12-03T06:18:07.879Z,3.17
2018-12-03T06:20:36.879Z,2.73
2018-12-03T06:23:06.670Z,5.93
2018-12-03T06:25:35.793Z,5.23
2018-12-03T06:28:05.031Z,5.43
2018-12-03T06:30:34.040Z,4.33
2018-12-03T06:33:03.539Z,3.37
2018-12-03T06:35:32.824Z,4.17
2018-12-03T06:38:01.531Z,5.37
2018-12-03T06:40:32.079Z,2.77
2018-12-03T06:43:01.212Z,4.43
2018-12-03T06:45:30.174Z,3.23
2018-12-03T06:48:09.919Z,4.90
2018-12-03T06:50:38.773Z,4.77
2018-12-03T06:53:08.369Z,4.77
2018-12-03T06:55:37.648Z,5.13
2018-12-03T06:58:07.202Z,5.90
2018-12-03T07:00:37.487Z,3.00
2018-12-03T07:03:06.613Z,3.73
2018-12-03T07:05:35.837Z,2.80
2018-12-03T07:08:06.493Z,4.10
2018-12-03T07:10:35.684Z,5.10
2018-12-03T07:13:09.136Z,3.43
2018-12-03T07:15:40.249Z,5.37
2018-12-03T07:18:11.014Z,4.67
2018-12-03T07:20:40.191Z,4.50
2018-12-03T07:23:09.368Z,4.33
2018-12-03T07:25:38.958Z,4.23
2018-12-03T07:28:08.605Z,4.70
2018-12-03T07:30:37.368Z,3.63
2018-12-03T07:33:07.220Z,4.27
2018-12-03T07:35:36.819Z,4.43
2018-12-03T07:38:06.179Z,5.90
2018-12-03T07:40:35.049Z,4.30
2018-12-03T07:43:04.221Z,4.53
2018-12-03T07:45:34.836Z,4.90
2018-12-03T07:48:03.617Z,5.67
2018-12-03T07:50:32.915Z,4.13
2018-12-03T07:53:01.350Z,5.57
2018-12-03T07:55:31.076Z,4.67
2018-12-03T07:58:04.633Z,3.67
2018-12-03T08:00:42.987Z,4.77
2018-12-03T08:03:12.063Z,5.83
2018-12-03T08:05:41.932Z,3.33
2018-12-03T08:08:11.627Z,4.20
2018-12-03T08:10:42.385Z,5.53
2018-12-03T08:13:12.530Z,2.90
2018-12-03T08:15:41.891Z,4.17
2018-12-03T08:18:13.424Z,3.60
2018-12-03T08:20:46.510Z,4.87
2018-12-03T08:23:20.644Z,4.07
2018-12-03T08:25:50.092Z,1.90
2018-12-03T08:28:19.722Z,3.93
2018-12-03T08:30:48.826Z,6.70
2018-12-03T08:33:18.318Z,5.27
2018-12-03T08:35:47.776Z,4.60
2018-12-03T08:38:17.354Z,5.07
2018-12-03T08:40:46.273Z,5.60
2018-12-03T08:43:15.328Z,3.83
2018-12-03T08:45:44.124Z,5.63
2018-12-03T08:48:13.413Z,4.63
2018-12-03T08:50:43.401Z,4.53
2018-12-03T08:53:12.457Z,6.10
2018-12-03T08:55:42.004Z,6.10
2018-12-03T08:58:14.709Z,5.03
2018-12-03T09:00:45.482Z,4.40
2018-12-03T09:03:21.070Z,6.50
2018-12-03T09:05:50.305Z,4.30
2018-12-03T09:08:20.084Z,4.93
2018-12-03T09:10:49.516Z,4.50
2018-12-03T09:13:22.095Z,4.57
2018-12-03T09:15:57.410Z,3.63
2018-12-03T09:18:31.056Z,5.00
2018-12-03T09:21:00.433Z,3.97
2018-12-03T09:23:29.511Z,4.63
2018-12-03T09:25:58.864Z,3.53
2018-12-03T09:28:27.768Z,3.13
2018-12-03T09:30:57.910Z,5.03
2018-12-03T09:33:26.673Z,4.80
2018-12-03T09:35:56.193Z,4.70
2018-12-03T09:38:25.243Z,4.30
2018-12-03T09:40:59.317Z,5.70
2018-12-03T09:43:28.802Z,5.67
2018-12-03T09:45:58.315Z,4.07
2018-12-03T09:48:27.874Z,3.90
2018-12-03T09:50:56.793Z,3.83
2018-12-03T09:53:26.132Z,3.97
2018-12-03T09:55:55.559Z,5.57
2018-12-03T09:58:26.351Z,4.17
2018-12-03T10:00:55.589Z,4.93
2018-12-03T10:03:28.501Z,6.57
2018-12-03T10:05:59.729Z,4.53
2018-12-03T10:08:31.805Z,4.87
2018-12-03T10:11:02.102Z,5.10
2018-12-03T10:13:32.588Z,4.73
2018-12-03T10:16:01.756Z,4.13
2018-12-03T10:18:30.818Z,4.60
2018-12-03T10:21:01.135Z,5.83
2018-12-03T10:23:29.938Z,4.70
2018-12-03T10:26:00.176Z,5.20
2018-12-03T10:28:29.454Z,5.13
2018-12-03T10:30:58.958Z,6.23
2018-12-03T10:33:33.998Z,4.60
2018-12-03T10:36:06.018Z,5.23
2018-12-03T10:38:37.455Z,4.13
2018-12-03T10:41:12.640Z,4.97
2018-12-03T10:43:41.792Z,5.70
2018-12-03T10:46:11.550Z,4.97
2018-12-03T10:48:40.349Z,5.63
2018-12-03T10:51:14.702Z,4.47
2018-12-03T10:53:43.758Z,5.63
2018-12-03T10:56:12.883Z,5.90
2018-12-03T10:58:44.053Z,4.80
2018-12-03T11:01:18.218Z,6.00
2018-12-03T11:03:52.389Z,4.60
2018-12-03T11:06:22.523Z,4.10
2018-12-03T11:08:51.433Z,5.73
2018-12-03T11:11:20.772Z,3.73
2018-12-03T11:13:49.847Z,4.17
2018-12-03T11:16:28.648Z,5.50
2018-12-03T11:18:57.825Z,4.80
2018-12-03T11:21:27.974Z,5.87
2018-12-03T11:23:59.819Z,5.50
2018-12-03T11:26:32.901Z,5.33
2018-12-03T11:29:03.556Z,4.27
2018-12-03T11:31:34.329Z,4.73
2018-12-03T11:34:03.573Z,4.53
2018-12-03T11:36:38.149Z,5.50
2018-12-03T11:39:26.931Z,4.80
2018-12-03T11:42:00.428Z,4.33
2018-12-03T11:44:29.737Z,4.90
2018-12-03T11:46:58.875Z,5.50
2018-12-03T11:49:28.707Z,5.20
2018-12-03T11:51:58.138Z,3.67
2018-12-03T11:54:27.077Z,4.13
2018-12-03T11:56:56.300Z,5.83
2018-12-03T11:59:25.971Z,4.03
2018-12-03T12:01:55.385Z,5.87
2018-12-03T12:04:25.021Z,4.03
2018-12-03T12:06:54.364Z,5.00
2018-12-03T12:09:23.107Z,5.83
2018-12-03T12:11:52.612Z,4.70
2018-12-03T12:14:26.666Z,3.60
2018-12-03T12:16:56.569Z,4.07
2018-12-03T12:19:25.681Z,4.00
2018-12-03T12:21:55.233Z,6.07
2018-12-03T12:24:24.781Z,4.33
2018-12-03T12:26:55.926Z,5.53
2018-12-03T12:29:25.654Z,4.63
2018-12-03T12:31:54.458Z,5.20
2018-12-03T12:34:24.071Z,4.00
2018-12-03T12:36:53.600Z,4.40
2018-12-03T12:39:22.832Z,3.60
2018-12-03T12:41:52.410Z,4.23
2018-12-03T12:44:21.577Z,4.97
2018-12-03T12:46:51.864Z,6.03
2018-12-03T12:49:20.621Z,21.60
2018-12-03T12:51:51.759Z,30.97
2018-12-03T12:54:19.076Z,12.63
2018-12-03T12:56:48.437Z,5.17
2018-12-03T12:59:18.047Z,4.40
2018-12-03T13:01:47.524Z,3.40
2018-12-03T13:04:16.584Z,4.13
2018-12-03T13:06:46.180Z,3.30
2018-12-03T13:09:15.363Z,4.67
2018-12-03T13:11:44.587Z,3.50
2018-12-03T13:14:14.362Z,4.00
2018-12-03T13:16:43.156Z,3.80
2018-12-03T13:19:12.472Z,3.90
2018-12-03T13:21:41.929Z,3.37
2018-12-03T13:24:11.236Z,3.30
2018-12-03T13:26:42.424Z,3.73
2018-12-03T13:29:11.704Z,4.43
2018-12-03T13:31:41.088Z,3.80
2018-12-03T13:34:10.235Z,3.77
2018-12-03T13:36:39.807Z,3.03
2018-12-03T13:39:10.010Z,4.43
2018-12-03T13:41:38.818Z,5.67
2018-12-03T13:44:08.840Z,4.60
2018-12-03T13:46:38.075Z,3.67
2018-12-03T13:49:08.060Z,3.43
2018-12-03T13:51:36.945Z,4.57
2018-12-03T13:54:06.950Z,6.33
2018-12-03T13:56:36.155Z,5.13
2018-12-03T13:59:05.410Z,4.57
2018-12-03T14:01:34.508Z,5.07
2018-12-03T14:04:13.618Z,4.20
2018-12-03T14:07:02.653Z,3.60
2018-12-03T14:09:51.593Z,4.43
2018-12-03T14:12:25.623Z,4.90
2018-12-03T14:15:35.656Z,3.47
2018-12-03T14:18:11.628Z,3.70
2018-12-03T14:20:43.334Z,4.03
2018-12-03T14:23:14.578Z,5.33
2018-12-03T14:25:43.448Z,4.33
2018-12-03T14:28:12.990Z,3.90
2018-12-03T14:30:42.601Z,4.40
2018-12-03T14:33:11.945Z,5.40
2018-12-03T14:35:41.587Z,5.00
2018-12-03T14:38:11.080Z,3.30
2018-12-03T14:40:40.689Z,2.87
2018-12-03T14:43:10.248Z,5.03
2018-12-03T14:45:39.592Z,4.37
2018-12-03T14:48:09.116Z,3.30
2018-12-03T14:50:38.315Z,3.53
2018-12-03T14:53:07.867Z,3.20
2018-12-03T14:55:37.265Z,3.40
2018-12-03T14:58:06.830Z,3.93
2018-12-03T15:00:35.368Z,3.50
2018-12-03T15:03:04.603Z,4.73
2018-12-03T15:05:33.718Z,3.47
2018-12-03T15:08:02.852Z,4.60
2018-12-03T15:10:31.984Z,4.17
2018-12-03T15:13:01.128Z,3.77
2018-12-03T15:15:30.847Z,3.60
2018-12-03T15:18:00.382Z,3.50
2018-12-03T15:20:29.341Z,4.60
2018-12-03T15:22:58.894Z,4.40
2018-12-03T15:25:28.479Z,5.13
2018-12-03T15:27:58.056Z,4.83
2018-12-03T15:30:27.540Z,3.70
2018-12-03T15:32:56.759Z,5.00
2018-12-03T15:35:25.887Z,5.20
2018-12-03T15:37:55.155Z,5.03
2018-12-03T15:40:24.561Z,7.00
2018-12-03T15:42:53.266Z,5.70
2018-12-03T15:45:22.509Z,5.43
2018-12-03T15:47:51.248Z,4.50
2018-12-03T15:50:20.365Z,5.33
2018-12-03T15:52:49.876Z,5.90
2018-12-03T15:55:18.370Z,5.33
2018-12-03T15:57:47.839Z,7.13
2018-12-03T16:00:17.309Z,4.93
2018-12-03T16:02:46.722Z,5.67
2018-12-03T16:05:19.499Z,5.63
2018-12-03T16:07:49.038Z,5.57
2018-12-03T16:10:17.860Z,5.50
2018-12-03T16:12:47.597Z,6.20
2018-12-03T16:15:16.760Z,5.83
2018-12-03T16:17:46.413Z,6.97
2018-12-03T16:20:15.714Z,6.30
2018-12-03T16:22:45.230Z,5.80
2018-12-03T16:25:14.510Z,5.87
2018-12-03T16:27:44.940Z,4.90
2018-12-03T16:30:17.215Z,7.27
2018-12-03T16:32:48.076Z,5.83
2018-12-03T16:35:17.136Z,8.17
2018-12-03T16:37:46.256Z,6.77
2018-12-03T16:40:15.191Z,6.77
2018-12-03T16:42:44.084Z,6.03
2018-12-03T16:45:13.695Z,5.90
2018-12-03T16:47:43.026Z,5.77
2018-12-03T16:50:12.625Z,6.30
2018-12-03T16:52:42.202Z,6.40
2018-12-03T16:55:10.960Z,5.30
2018-12-03T16:57:40.072Z,6.60
2018-12-03T17:00:14.877Z,5.33
2018-12-03T17:02:43.799Z,4.97
2018-12-03T17:05:12.527Z,5.80
2018-12-03T17:07:42.029Z,5.03
2018-12-03T17:10:13.705Z,8.27
2018-12-03T17:12:43.629Z,6.33
2018-12-03T17:15:13.125Z,8.57
2018-12-03T17:17:42.827Z,4.67
2018-12-03T17:21:20.917Z,5.63
2018-12-03T17:24:01.296Z,6.30
2018-12-03T17:26:30.851Z,5.57
2018-12-03T17:29:00.175Z,5.53
2018-12-03T17:31:29.104Z,6.93
2018-12-03T17:33:58.692Z,6.37
2018-12-03T17:36:28.284Z,4.60
2018-12-03T17:38:57.485Z,6.30
2018-12-03T17:41:26.485Z,5.27
2018-12-03T17:43:55.833Z,5.17
2018-12-03T17:46:25.010Z,4.77
2018-12-03T17:48:54.057Z,4.60
2018-12-03T17:51:24.021Z,5.37
2018-12-03T17:53:53.148Z,4.87
2018-12-03T17:56:22.692Z,5.63
2018-12-03T17:58:51.919Z,4.80
2018-12-03T18:01:21.552Z,4.63
2018-12-03T18:03:50.789Z,4.13
2018-12-03T18:06:19.971Z,4.60
2018-12-03T18:08:49.236Z,4.03
2018-12-03T18:11:18.508Z,4.40
2018-12-03T18:13:47.318Z,3.60
2018-12-03T18:16:16.946Z,4.10
2018-12-03T18:18:46.624Z,3.33
2018-12-03T18:21:15.528Z,3.27
2018-12-03T18:23:45.187Z,3.20
2018-12-03T18:26:14.740Z,5.27
2018-12-03T18:28:44.250Z,3.30
2018-12-03T18:31:13.692Z,3.80
2018-12-03T18:33:43.128Z,3.33
2018-12-03T18:36:12.846Z,3.70
2018-12-03T18:38:42.448Z,3.30
2018-12-03T18:41:11.971Z,4.30
2018-12-03T18:43:41.521Z,3.17
2018-12-03T18:46:10.931Z,2.90
2018-12-03T18:48:40.191Z,2.60
2018-12-03T18:51:10.958Z,2.60
2018-12-03T18:53:40.496Z,2.47
2018-12-03T18:56:13.085Z,3.37
2018-12-03T18:58:47.418Z,3.80
2018-12-03T19:01:16.836Z,2.93
2018-12-03T19:03:46.367Z,2.30
2018-12-03T19:06:15.965Z,2.47
2018-12-03T19:08:45.061Z,2.03
2018-12-03T19:11:15.102Z,1.83
2018-12-03T19:13:44.676Z,1.90
2018-12-03T19:16:14.360Z,2.13
2018-12-03T19:18:43.775Z,1.90
2018-12-03T19:21:13.412Z,1.87
2018-12-03T19:23:42.512Z,1.93
2018-12-03T19:26:11.864Z,2.10
2018-12-03T19:28:41.867Z,1.77
2018-12-03T19:31:11.437Z,2.27
2018-12-03T19:33:41.020Z,1.83
2018-12-03T19:36:10.634Z,1.53
2018-12-03T19:38:40.101Z,1.37
2018-12-03T19:41:09.788Z,1.63
2018-12-03T19:43:39.409Z,1.67
2018-12-03T19:46:08.604Z,1.57
2018-12-03T19:48:38.243Z,2.03
2018-12-03T19:51:07.726Z,2.17
2018-12-03T19:53:37.286Z,1.93
2018-12-03T19:56:06.391Z,1.70
2018-12-03T19:58:39.957Z,2.13
2018-12-03T20:01:08.919Z,1.77
2018-12-03T20:03:37.668Z,1.90
2018-12-03T20:06:07.260Z,1.67
2018-12-03T20:08:36.942Z,2.00
2018-12-03T20:11:06.174Z,1.90
2018-12-03T20:13:35.750Z,1.47
2018-12-03T20:16:05.749Z,1.73
2018-12-03T20:18:34.659Z,1.60
2018-12-03T20:21:11.393Z,1.90
2018-12-03T20:23:45.636Z,1.50
2018-12-03T20:26:17.211Z,1.83
2018-12-03T20:30:58.001Z,1.97
2018-12-03T20:33:39.399Z,1.80
2018-12-03T20:36:15.650Z,1.33
2018-12-03T20:38:59.976Z,1.67
2018-12-03T20:41:33.121Z,1.23
2018-12-03T20:44:16.112Z,1.27
2018-12-03T20:46:59.604Z,1.20
2018-12-03T20:49:37.818Z,1.00
2018-12-03T20:52:15.445Z,1.37
2018-12-03T20:54:44.942Z,1.07
2018-12-03T20:57:15.510Z,1.07
2018-12-03T20:59:45.018Z,1.33
2018-12-03T21:02:16.865Z,1.30
2018-12-03T21:04:46.451Z,1.40
2018-12-03T21:07:16.015Z,1.83
2018-12-03T21:09:45.570Z,1.60
2018-12-03T21:12:15.098Z,5.07
2018-12-03T21:14:45.096Z,1.53
2018-12-03T21:17:14.605Z,1.37
2018-12-03T21:19:45.556Z,2.00
2018-12-03T21:22:15.082Z,1.67
2018-12-03T21:24:44.568Z,1.40
2018-12-03T21:27:13.801Z,1.70
2018-12-03T21:29:43.255Z,1.30
2018-12-03T21:32:12.716Z,2.60
2018-12-03T21:34:42.315Z,1.67
2018-12-03T21:37:11.891Z,1.57
2018-12-03T21:39:40.719Z,1.37
2018-12-03T21:42:09.958Z,1.20
2018-12-03T21:44:39.567Z,1.37
2018-12-03T21:47:08.696Z,1.30
2018-12-03T21:49:37.676Z,1.17
2018-12-03T21:52:07.109Z,1.83
2018-12-03T21:54:37.008Z,1.00
